METAR Data
IDs: Format: Raw Decoded Include TAF

Data at: 0111 UTC 25 Mar 2019

KBRL 250053Z AUTO 03006KT 5SM BR OVC008 09/08 A3000 RMK AO2 CIG 005V012 SLP162 T00940078
KBRL 250038Z AUTO 06005KT 5SM BR OVC008 09/08 A3000 RMK AO2 CIG 007V012 T00940078
KBRL 242353Z AUTO 08008KT 4SM BR OVC010 10/08 A2998 RMK AO2 CIG 007V014 SLP156 60004 T01000078 10111 20094 53001
KBRL 242349Z AUTO 08008KT 4SM BR OVC010 10/08 A2998 RMK AO2 CIG 007V014
KBRL 242253Z AUTO 06007KT 4SM BR BKN007 OVC013 10/08 A2996 RMK AO2 RAB2156E27 CIG 005V010 SLP148 P0003 T01000083
KBRL 242228Z AUTO 05008KT 4SM BR BKN007 OVC013 11/09 A2996 RMK AO2 LTG DSNT S RAB2156E27 CIG 005V009 P0003 T01060089
KBRL 242214Z AUTO 05007KT 2SM RA BR OVC008 11/09 A2997 RMK AO2 LTG DSNT S RAB2156 CIG 005V011 P0002 T01060089
KBRL 242201Z AUTO 04004KT 3SM -RA BR OVC008 11/08 A2998 RMK AO2 RAB2156 CIG 006V010 P0000 T01060083
KBRL 242153Z AUTO 01003KT 4SM BR OVC010 11/08 A2998 RMK AO2 RAB2058E42 CIG 007V015 SLP154 P0001 T01060083
KBRL 242142Z AUTO 36005KT 4SM BR BKN010 OVC070 11/08 A2998 RMK AO2 RAB2058E42 P0001 T01060083
KBRL 242053Z AUTO 08005KT 6SM HZ FEW026 BKN070 OVC085 11/08 A2997 RMK AO2 LTG DSNT S RAB37E49 SLP151 P0000 60000 T01060078 56011
KBRL 242040Z AUTO 06008KT 6SM -RA SCT012 SCT026 OVC080 11/08 A2997 RMK AO2 LTG DSNT S RAB37 P0000 T01060078
KBRL 241953Z AUTO 00000KT 7SM OVC011 11/07 A2998 RMK AO2 RAE1859 SLP154 P0000 T01060072
KBRL 241932Z AUTO 15003KT 7SM BKN011 OVC024 11/07 A2998 RMK AO2 RAE1859 P0000 T01060072
KBRL 241901Z AUTO VRB03KT 7SM SCT010 OVC027 11/07 A2998 RMK AO2 RAE1859 P0000 T01060072
KBRL 241853Z AUTO 10003KT 6SM -RA BKN010 OVC028 11/07 A2998 RMK AO2 RAB50 SLP154 P0000 T01060072
KBRL 241845Z AUTO 12004KT 6SM HZ OVC010 11/07 A2998 RMK AO2 T01060072
KBRL 241753Z AUTO 00000KT 6SM HZ OVC009 09/07 A3000 RMK AO2 SLP162 60001 T00940067 10100 20078 58010
KBRL 241659Z AUTO 15006KT 6SM HZ BKN009 OVC029 09/07 A3002 RMK AO2 T00940067
KBRL 241653Z AUTO 12005KT 6SM BR SCT009 OVC030 09/07 A3002 RMK AO2 SLP167 T00890067
KBRL 241644Z AUTO 12007KT 6SM HZ SCT009 OVC030 09/06 A3002 RMK AO2 T00890061
KBRL 241623Z AUTO 13005KT 6SM BR OVC009 09/07 A3003 RMK AO2 T00890067
KBRL 241553Z AUTO 15007KT 7SM BKN010 OVC025 08/06 A3003 RMK AO2 SLP172 T00830056
KBRL 241453Z AUTO 15008KT 7SM OVC024 08/06 A3003 RMK AO2 RAB22E32 SLP172 P0000 60001 T00780056 58002
KBRL 241353Z AUTO 13007KT 5SM BR OVC025 08/06 A3004 RMK AO2 SLP174 T00780056
KBRL 241253Z AUTO 14008KT 5SM BR OVC029 08/06 A3004 RMK AO2 RAB27E44 SLP175 P0001 T00780061
KBRL 241153Z AUTO 12005KT 5SM BR OVC035 08/06 A3004 RMK AO2 RAE1056 SLP175 P0000 60010 70010 T00780061 10094 20072 56007
KBRL 241053Z AUTO 12008KT 5SM -RA BR OVC043 08/06 A3005 RMK AO2 RAB05 SLP177 P0008 T00780061
KBRL 241045Z AUTO 12007KT 4SM -RA BR OVC045 08/06 A3005 RMK AO2 RAB05 P0008 T00780061
KBRL 241030Z AUTO 13005KT 2SM RA BR BKN045 OVC055 08/06 A3006 RMK AO2 RAB05 P0005 T00780061
KBRL 240953Z AUTO 11005KT 6SM BR OVC050 07/06 A3005 RMK AO2 RAE36 SLP178 P0000 T00720056
KBRL 240853Z AUTO 14006KT 7SM -RA OVC065 08/06 A3006 RMK AO2 RAB0754 SLP181 P0002 60002 T00780056 58019
KBRL 240753Z AUTO 18009KT 9SM OVC065 09/04 A3009 RMK AO2 SLP192 T00890039
KBRL 240653Z AUTO 17009KT 10SM BKN034 BKN041 OVC055 09/02 A3011 RMK AO2 SLP196 T00890022
KBRL 240553Z AUTO 16007KT 10SM SCT037 BKN046 OVC060 09/01 A3012 RMK AO2 SLP202 T00890011 10106 20083 401330000 58004
KBRL 240453Z AUTO 16006KT 10SM OVC075 09/01 A3014 RMK AO2 SLP207 T00890011
KBRL 240353Z AUTO 13006KT 10SM OVC080 09/01 A3014 RMK AO2 SLP210 T00890006
KBRL 240253Z AUTO 10004KT 10SM SCT090 OVC110 08/01 A3014 RMK AO2 SLP208 T00830006 58005
KBRL 240153Z AUTO 11005KT 10SM CLR 09/00 A3014 RMK AO2 SLP212 T00890000
KBRL 240053Z AUTO 15007KT 10SM FEW110 09/00 A3015 RMK AO2 SLP214 T00940000
KBRL 232353Z AUTO 12006KT 10SM CLR 11/01 A3015 RMK AO2 SLP214 T01060006 10133 20106 56013
KBRL 232253Z AUTO 14008KT 10SM BKN110 12/00 A3016 RMK AO2 SLP218 T01170000
KBRL 232153Z AUTO 15008KT 10SM BKN120 12/00 A3017 RMK AO2 SLP221 T01220000
KBRL 232053Z AUTO 15010G17KT 10SM CLR 13/M01 A3019 RMK AO2 SLP226 T01281006 56018
KBRL 231953Z AUTO 17009G16KT 10SM CLR 13/00 A3021 RMK AO2 SLP233 T01280000
KBRL 231853Z AUTO 14011KT 10SM CLR 12/M01 A3022 RMK AO2 SLP235 T01171011
KBRL 231753Z AUTO 17008KT 10SM CLR 11/M01 A3024 RMK AO2 SLP244 T01111011 10117 20000 58014
KBRL 231653Z AUTO 14008KT 10SM CLR 11/00 A3026 RMK AO2 SLP248 T01060000
KBRL 231553Z AUTO 16009KT 10SM CLR 08/M01 A3027 RMK AO2 SLP255 T00831006
KBRL 231453Z AUTO 14008KT 10SM CLR 06/M01 A3028 RMK AO2 SLP259 T00561011 50003
KBRL 231353Z AUTO 13006KT 10SM CLR 03/M02 A3029 RMK AO2 SLP261 T00281017